Time;durP1;ratioP1;P1;durP2;ratioP2;P2;SDS_P1;SDS_P2;PMS_P1;PMS_P2;Temp;Humidity;BMP_temperature;BMP_pressure;BME280_temperature;BME280_humidity;BME280_pressure;Samples;Min_cycle;Max_cycle;Signal;HPM_P1;HPM_P2
2023/05/21 00:00:11;;;;;;;3.85;3.47;;;16.40;99.90;;;;;;4971899;28;20034;-88
2023/05/21 00:02:38;;;;;;;4.72;3.28;;;16.40;99.90;;;;;;4969963;28;20035;-88
2023/05/21 00:05:04;;;;;;;5.43;2.85;;;16.40;99.90;;;;;;4970629;28;20482;-88
2023/05/21 00:07:33;;;;;;;3.55;3.25;;;16.40;99.90;;;;;;4970407;28;20038;-88
2023/05/21 00:09:59;;;;;;;3.30;3.00;;;16.80;99.90;;;;;;4969835;28;20031;-87
2023/05/21 00:12:24;;;;;;;4.40;3.35;;;17.20;99.90;;;;;;4972922;28;20519;-87
2023/05/21 00:14:50;;;;;;;6.57;3.28;;;16.30;99.90;;;;;;4973816;28;20100;-88
2023/05/21 00:17:16;;;;;;;3.63;3.30;;;16.20;99.90;;;;;;4973015;28;20412;-88
2023/05/21 00:19:42;;;;;;;3.78;3.03;;;16.20;99.90;;;;;;4972820;28;20038;-89
2023/05/21 00:22:08;;;;;;;4.47;2.75;;;16.20;99.90;;;;;;4973963;28;20055;-88
2023/05/21 00:24:33;;;;;;;5.63;4.13;;;16.20;99.90;;;;;;4972593;28;20034;-88
2023/05/21 00:26:59;;;;;;;4.80;3.50;;;16.20;99.90;;;;;;4973145;28;20031;-87
2023/05/21 00:29:26;;;;;;;4.78;3.33;;;16.40;99.90;;;;;;4975744;28;20110;-87
2023/05/21 00:31:53;;;;;;;5.15;3.70;;;16.20;99.90;;;;;;4973647;28;20033;-87
2023/05/21 00:34:18;;;;;;;9.10;3.92;;;16.10;99.90;;;;;;4973611;28;20042;-88
2023/05/21 00:36:45;;;;;;;5.40;2.95;;;16.20;99.90;;;;;;4973307;28;20022;-87
2023/05/21 00:39:12;;;;;;;5.43;3.38;;;16.10;99.90;;;;;;4972588;28;20054;-87
2023/05/21 00:41:38;;;;;;;4.40;3.20;;;16.20;99.90;;;;;;4973750;28;20027;-87
2023/05/21 00:44:05;;;;;;;3.05;2.78;;;16.10;99.90;;;;;;4972994;28;20034;-87
2023/05/21 00:46:31;;;;;;;4.68;3.25;;;16.10;99.90;;;;;;4973555;28;20056;-87
2023/05/21 00:48:57;;;;;;;5.13;3.28;;;16.20;99.90;;;;;;4973273;28;20030;-87
2023/05/21 00:51:24;;;;;;;8.48;3.55;;;16.20;99.90;;;;;;4972622;28;20327;-88
2023/05/21 00:53:51;;;;;;;3.85;3.03;;;16.20;99.90;;;;;;4972962;28;20043;-87
2023/05/21 00:56:20;;;;;;;3.92;2.53;;;16.10;99.90;;;;;;4973371;28;20034;-87
2023/05/21 00:58:46;;;;;;;4.35;2.95;;;16.10;99.90;;;;;;4972522;28;20390;-87
2023/05/21 01:01:12;;;;;;;3.38;3.08;;;16.10;99.90;;;;;;4972706;28;20534;-88
2023/05/21 01:03:39;;;;;;;4.50;3.20;;;16.20;99.90;;;;;;4972541;28;20038;-87
2023/05/21 01:06:06;;;;;;;4.15;3.45;;;16.00;99.90;;;;;;4972238;28;20027;-87
2023/05/21 01:08:33;;;;;;;4.10;3.03;;;16.00;99.90;;;;;;4973464;28;20097;-87
2023/05/21 01:11:00;;;;;;;4.18;3.78;;;15.90;99.90;;;;;;4973176;28;20033;-87
2023/05/21 01:13:27;;;;;;;6.93;3.63;;;15.90;99.90;;;;;;4971983;28;20050;-87
2023/05/21 01:15:53;;;;;;;7.18;3.38;;;15.90;99.90;;;;;;4972611;28;20071;-87
2023/05/21 01:18:20;;;;;;;5.07;3.22;;;15.80;99.90;;;;;;4972626;28;20027;-86
2023/05/21 01:20:49;;;;;;;18.13;3.60;;;15.90;99.90;;;;;;4971902;28;20019;-87
2023/05/21 01:23:16;;;;;;;5.40;3.42;;;15.70;99.90;;;;;;4975120;28;20359;-87
2023/05/21 01:25:42;;;;;;;3.75;3.10;;;16.70;99.90;;;;;;4973004;28;20488;-87
2023/05/21 01:28:08;;;;;;;5.63;3.28;;;15.70;99.90;;;;;;4971909;28;20035;-87
2023/05/21 01:30:34;;;;;;;4.70;3.42;;;15.70;99.90;;;;;;4972649;28;20490;-87
2023/05/21 01:33:06;;;;;;;5.80;3.25;;;15.80;99.90;;;;;;4972571;28;20371;-87
2023/05/21 01:35:36;;;;;;;3.90;3.40;;;15.70;99.90;;;;;;4971425;28;20080;-87
2023/05/21 01:38:14;;;;;;;4.03;3.47;;;15.70;99.90;;;;;;4972715;28;20395;-87
2023/05/21 01:40:53;;;;;;;4.57;4.18;;;15.70;99.90;;;;;;4971776;28;20039;-87
2023/05/21 01:43:19;;;;;;;6.40;4.10;;;15.70;99.90;;;;;;4972725;28;20031;-87
2023/05/21 01:45:46;;;;;;;4.30;3.90;;;15.40;99.90;;;;;;4972434;28;20033;-87
2023/05/21 01:48:12;;;;;;;5.55;3.95;;;15.50;99.90;;;;;;4972075;28;20027;-87
2023/05/21 01:50:40;;;;;;;4.45;4.05;;;15.50;99.90;;;;;;4972036;28;20034;-87
2023/05/21 01:53:06;;;;;;;8.90;4.38;;;15.50;99.90;;;;;;4972749;28;20031;-87
2023/05/21 01:55:32;;;;;;;5.13;4.40;;;15.60;99.90;;;;;;4971569;28;20023;-87
2023/05/21 01:57:58;;;;;;;4.22;3.83;;;15.60;99.90;;;;;;4972268;28;20034;-87
2023/05/21 02:00:28;;;;;;;7.10;3.78;;;15.70;99.90;;;;;;4972079;28;20026;-86
2023/05/21 02:02:53;;;;;;;6.43;4.13;;;15.60;99.90;;;;;;4971521;28;20031;-87
2023/05/21 02:05:19;;;;;;;4.90;3.67;;;15.70;99.90;;;;;;4972332;28;20030;-88
2023/05/21 02:07:46;;;;;;;4.35;3.95;;;15.70;99.90;;;;;;4971435;28;20035;-87
2023/05/21 02:10:11;;;;;;;4.65;3.90;;;15.80;99.90;;;;;;4971631;28;20047;-87
2023/05/21 02:12:37;;;;;;;4.40;4.07;;;15.80;99.90;;;;;;4971507;28;20104;-87
2023/05/21 02:15:04;;;;;;;6.82;4.05;;;15.90;99.90;;;;;;4971908;28;20035;-87
2023/05/21 02:17:32;;;;;;;4.22;3.83;;;15.90;99.90;;;;;;4973424;28;20531;-87
2023/05/21 02:20:11;;;;;;;4.95;4.05;;;15.90;99.90;;;;;;4972346;28;20030;-87
2023/05/21 02:22:41;;;;;;;4.55;4.13;;;16.20;99.90;;;;;;4978145;28;20108;-87
2023/05/21 02:25:08;;;;;;;5.93;3.80;;;15.90;99.90;;;;;;4990741;28;20040;-88
2023/05/21 02:27:38;;;;;;;4.13;3.60;;;16.00;99.90;;;;;;4990912;28;20278;-87
2023/05/21 02:30:05;;;;;;;4.30;3.95;;;15.90;99.90;;;;;;4990965;28;20073;-87
2023/05/21 02:32:31;;;;;;;5.20;4.13;;;16.00;99.90;;;;;;4991408;28;20069;-87
2023/05/21 02:34:57;;;;;;;7.60;3.92;;;16.00;99.90;;;;;;4990387;28;20085;-87
2023/05/21 02:37:26;;;;;;;6.68;4.20;;;16.00;99.90;;;;;;4991700;28;20081;-86
2023/05/21 02:39:52;;;;;;;6.03;4.35;;;16.00;99.90;;;;;;4991024;28;20087;-87
2023/05/21 02:42:18;;;;;;;4.45;4.05;;;16.00;99.90;;;;;;4990911;28;20019;-87
2023/05/21 02:44:43;;;;;;;6.40;4.30;;;16.00;99.90;;;;;;4990198;28;20076;-86
2023/05/21 02:47:09;;;;;;;4.55;4.15;;;16.10;99.90;;;;;;4991112;28;20427;-87
2023/05/21 02:49:35;;;;;;;4.28;3.95;;;16.00;99.90;;;;;;4990579;28;20481;-86
2023/05/21 02:52:00;;;;;;;4.50;3.85;;;16.00;99.90;;;;;;4990368;28;20027;-87
2023/05/21 02:54:26;;;;;;;4.80;4.30;;;15.90;99.90;;;;;;4990771;28;20041;-86
2023/05/21 02:56:51;;;;;;;6.18;4.75;;;15.90;99.90;;;;;;4990453;28;20120;-86
2023/05/21 02:59:17;;;;;;;5.00;4.50;;;15.80;99.90;;;;;;4989934;28;20125;-86
2023/05/21 03:01:43;;;;;;;4.70;4.30;;;16.20;99.90;;;;;;4990646;28;20068;-87
2023/05/21 03:04:09;;;;;;;5.47;4.07;;;15.80;99.90;;;;;;4990821;28;20034;-88
2023/05/21 03:06:35;;;;;;;5.03;4.18;;;15.80;99.90;;;;;;4989883;28;20033;-87
2023/05/21 03:09:01;;;;;;;5.20;4.70;;;15.80;99.90;;;;;;4990716;28;20493;-87
2023/05/21 03:11:27;;;;;;;4.95;4.55;;;15.80;99.90;;;;;;4991770;28;20734;-87
2023/05/21 03:13:52;;;;;;;4.90;4.45;;;15.90;99.90;;;;;;4989709;28;20046;-87
2023/05/21 03:16:18;;;;;;;6.28;5.28;;;15.70;99.90;;;;;;4990662;28;20027;-87
2023/05/21 03:18:43;;;;;;;8.10;5.50;;;15.70;99.90;;;;;;4990256;28;20030;-87
2023/05/21 03:21:12;;;;;;;5.50;5.00;;;15.70;99.90;;;;;;4989954;28;20513;-88
2023/05/21 03:23:40;;;;;;;5.25;4.75;;;15.70;99.90;;;;;;4990221;28;20035;-87
2023/05/21 03:26:06;;;;;;;5.82;5.38;;;15.70;99.90;;;;;;4989819;28;20044;-87
2023/05/21 03:28:32;;;;;;;7.15;4.90;;;15.80;99.90;;;;;;4991389;28;20026;-88
2023/05/21 03:30:58;;;;;;;8.10;5.07;;;15.70;99.90;;;;;;4992034;28;20026;-87
2023/05/21 03:33:23;;;;;;;5.72;5.22;;;15.70;99.90;;;;;;4991130;28;20041;-87
2023/05/21 03:35:49;;;;;;;6.90;5.05;;;15.70;99.90;;;;;;4990236;28;20019;-87
2023/05/21 03:38:15;;;;;;;6.45;5.10;;;15.70;99.90;;;;;;4990402;28;20038;-87
2023/05/21 03:40:40;;;;;;;6.32;5.75;;;15.70;99.90;;;;;;4989600;28;20018;-88
2023/05/21 03:43:06;;;;;;;5.70;5.15;;;15.70;99.90;;;;;;4990435;28;20030;-87
2023/05/21 03:45:32;;;;;;;8.68;5.63;;;15.70;99.90;;;;;;4991482;28;20034;-87
2023/05/21 03:47:57;;;;;;;8.35;4.78;;;15.70;99.90;;;;;;4993303;28;20473;-88
2023/05/21 03:50:23;;;;;;;5.93;5.35;;;15.70;99.90;;;;;;4993705;28;20042;-88
2023/05/21 03:52:48;;;;;;;7.20;5.85;;;16.20;99.90;;;;;;4993404;28;20119;-87
2023/05/21 03:55:14;;;;;;;7.72;5.60;;;15.60;99.90;;;;;;4992831;28;20030;-87
2023/05/21 03:57:40;;;;;;;6.25;5.28;;;15.60;99.90;;;;;;4993401;28;20034;-87
2023/05/21 04:00:07;;;;;;;7.15;5.47;;;15.70;99.90;;;;;;4993755;28;20041;-88
2023/05/21 04:02:33;;;;;;;6.97;5.22;;;15.60;99.90;;;;;;4992367;28;20026;-88
2023/05/21 04:04:58;;;;;;;7.88;5.45;;;15.70;99.90;;;;;;4996382;28;20140;-87
2023/05/21 04:07:25;;;;;;;6.85;5.53;;;15.40;99.90;;;;;;4993309;28;20027;-88
2023/05/21 04:09:51;;;;;;;5.93;5.28;;;15.60;99.90;;;;;;4992647;28;20158;-87
2023/05/21 04:12:18;;;;;;;7.07;5.40;;;15.40;99.90;;;;;;4993180;28;20527;-88
2023/05/21 04:14:45;;;;;;;6.35;5.85;;;15.50;99.90;;;;;;4993222;28;20030;-87
2023/05/21 04:17:11;;;;;;;6.90;5.78;;;15.40;99.90;;;;;;4975121;28;20035;-86
2023/05/21 04:19:37;;;;;;;6.97;5.60;;;15.40;99.90;;;;;;4973624;28;20031;-86
2023/05/21 04:22:03;;;;;;;8.10;6.18;;;15.30;99.90;;;;;;4973624;28;20030;-87
2023/05/21 04:24:29;;;;;;;5.57;5.07;;;15.30;99.90;;;;;;4973134;28;20038;-86
2023/05/21 04:26:59;;;;;;;6.70;5.88;;;15.20;99.90;;;;;;4973483;28;20023;-87
2023/05/21 04:29:28;;;;;;;9.77;6.07;;;15.70;99.90;;;;;;4972992;28;20547;-86
2023/05/21 04:31:54;;;;;;;8.48;6.43;;;15.20;99.90;;;;;;4973277;28;20064;-86
2023/05/21 04:34:20;;;;;;;7.20;5.78;;;15.30;99.90;;;;;;4973310;28;20066;-87
2023/05/21 04:36:46;;;;;;;7.45;5.93;;;15.20;99.90;;;;;;4972491;28;20077;-86
2023/05/21 04:39:11;;;;;;;6.22;5.55;;;15.20;99.90;;;;;;4973563;28;20498;-87
2023/05/21 04:41:38;;;;;;;6.82;6.22;;;15.20;99.90;;;;;;4973338;28;20383;-87
2023/05/21 04:44:06;;;;;;;9.02;5.70;;;15.10;99.90;;;;;;4972689;28;20034;-87
2023/05/21 04:46:33;;;;;;;6.82;6.22;;;15.10;99.90;;;;;;4973278;28;20026;-85
2023/05/21 04:49:01;;;;;;;6.30;5.32;;;15.10;99.90;;;;;;4973204;28;20056;-87
2023/05/21 04:51:28;;;;;;;6.97;6.28;;;15.20;99.90;;;;;;4972420;28;20034;-88
2023/05/21 04:53:54;;;;;;;5.75;5.15;;;15.30;99.90;;;;;;4972890;28;20042;-87
2023/05/21 04:56:25;;;;;;;6.97;6.35;;;15.30;99.90;;;;;;4973513;28;20084;-87
2023/05/21 04:58:50;;;;;;;6.18;5.10;;;15.20;99.90;;;;;;4975863;28;20117;-87
2023/05/21 05:01:17;;;;;;;5.97;5.47;;;15.30;99.90;;;;;;4973259;28;20128;-87
2023/05/21 05:03:44;;;;;;;6.38;5.88;;;15.20;99.90;;;;;;4972846;28;20031;-88
2023/05/21 05:06:10;;;;;;;6.10;5.43;;;15.30;99.90;;;;;;4972147;28;20470;-88
2023/05/21 05:08:35;;;;;;;5.80;5.30;;;15.30;99.90;;;;;;4972594;28;20038;-87
2023/05/21 05:11:01;;;;;;;6.00;5.18;;;15.40;99.90;;;;;;4972959;28;20027;-88
2023/05/21 05:13:27;;;;;;;5.70;5.20;;;15.40;99.90;;;;;;4972027;28;20112;-87
2023/05/21 05:15:53;;;;;;;8.13;5.47;;;15.40;99.90;;;;;;4972717;28;20018;-87
2023/05/21 05:18:18;;;;;;;6.05;5.00;;;15.40;99.90;;;;;;4972929;28;20035;-88
2023/05/21 05:20:45;;;;;;;6.10;4.80;;;15.50;99.90;;;;;;4972122;28;20026;-88
2023/05/21 05:23:11;;;;;;;5.93;5.38;;;15.60;99.90;;;;;;4972710;28;20110;-87
2023/05/21 05:25:36;;;;;;;5.65;5.03;;;15.60;99.90;;;;;;4972022;28;20104;-87
2023/05/21 05:28:02;;;;;;;6.00;5.38;;;15.70;99.90;;;;;;4972747;28;20023;-87
2023/05/21 05:30:27;;;;;;;7.10;5.03;;;15.70;99.90;;;;;;4972560;28;20126;-87
2023/05/21 05:32:53;;;;;;;5.63;5.13;;;15.70;99.90;;;;;;4971452;28;20096;-87
2023/05/21 05:35:19;;;;;;;7.13;4.95;;;16.60;99.90;;;;;;4972576;28;20033;-87
2023/05/21 05:37:44;;;;;;;5.95;5.28;;;15.70;99.90;;;;;;4971994;28;20114;-87
2023/05/21 05:40:10;;;;;;;5.80;5.10;;;15.30;99.90;;;;;;4972105;28;20058;-87
2023/05/21 05:42:36;;;;;;;9.13;5.60;;;15.70;99.90;;;;;;4972334;28;20402;-87
2023/05/21 05:45:01;;;;;;;7.65;4.95;;;15.70;99.90;;;;;;4965876;28;20066;-87
2023/05/21 05:47:27;;;;;;;6.43;5.18;;;15.80;99.90;;;;;;4964487;28;20033;-87
2023/05/21 05:49:52;;;;;;;7.43;5.40;;;15.80;99.90;;;;;;4971614;28;20069;-87
2023/05/21 05:52:18;;;;;;;7.68;5.57;;;15.80;99.90;;;;;;4972176;28;20092;-87
2023/05/21 05:54:43;;;;;;;5.82;5.18;;;15.80;99.90;;;;;;4971011;28;20109;-87
2023/05/21 05:57:09;;;;;;;5.70;5.15;;;15.90;99.90;;;;;;4972510;28;20035;-86
2023/05/21 05:59:34;;;;;;;6.50;5.90;;;15.90;99.90;;;;;;4971958;28;20033;-87
2023/05/21 06:02:00;;;;;;;6.82;5.55;;;15.90;99.90;;;;;;4971305;28;20494;-87
2023/05/21 06:04:28;;;;;;;8.13;5.75;;;15.90;99.90;;;;;;4971559;28;20552;-88
2023/05/21 06:06:56;;;;;;;6.15;5.50;;;15.90;99.90;;;;;;4971168;28;20060;-87
2023/05/21 06:09:22;;;;;;;7.75;5.57;;;15.90;99.90;;;;;;4969417;28;20390;-87
2023/05/21 06:11:48;;;;;;;6.53;5.82;;;16.00;99.90;;;;;;4970673;28;20074;-87
2023/05/21 06:14:13;;;;;;;10.30;6.20;;;15.90;99.90;;;;;;4971271;28;20077;-89
2023/05/21 06:16:39;;;;;;;6.05;5.40;;;15.90;99.90;;;;;;4970207;28;20474;-87
2023/05/21 06:19:04;;;;;;;7.07;5.65;;;15.90;99.90;;;;;;4971992;28;20031;-87
2023/05/21 06:21:30;;;;;;;7.00;6.00;;;16.00;99.90;;;;;;4971236;28;20039;-87
2023/05/21 06:23:55;;;;;;;13.27;5.35;;;16.00;99.90;;;;;;4970249;28;20076;-86
2023/05/21 06:26:21;;;;;;;6.22;5.63;;;16.00;99.90;;;;;;4971271;28;20027;-86
2023/05/21 06:28:48;;;;;;;13.02;6.15;;;16.10;99.90;;;;;;4970551;28;20026;-86
2023/05/21 06:31:13;;;;;;;6.60;6.00;;;16.10;99.90;;;;;;4971256;28;20470;-86
2023/05/21 06:33:39;;;;;;;7.15;5.07;;;16.10;99.90;;;;;;4971040;28;20062;-86
2023/05/21 06:36:05;;;;;;;6.25;5.75;;;16.10;99.90;;;;;;4971010;28;20030;-86
2023/05/21 06:38:30;;;;;;;6.30;5.80;;;16.50;99.90;;;;;;4973072;28;20027;-86
2023/05/21 06:40:57;;;;;;;7.25;5.32;;;16.20;99.90;;;;;;4970829;28;20401;-86
2023/05/21 06:43:23;;;;;;;7.18;6.15;;;16.20;99.90;;;;;;4970186;28;20022;-86
2023/05/21 06:45:48;;;;;;;8.82;6.65;;;16.30;99.90;;;;;;4972701;28;20030;-87
2023/05/21 06:48:17;;;;;;;12.25;6.65;;;16.30;99.90;;;;;;4971109;28;20030;-86
2023/05/21 06:50:43;;;;;;;9.55;6.28;;;16.30;99.90;;;;;;4970002;28;20027;-86
2023/05/21 06:53:08;;;;;;;7.68;6.50;;;16.40;99.90;;;;;;4970477;28;20030;-85
2023/05/21 06:55:34;;;;;;;6.95;5.45;;;16.40;99.90;;;;;;4970834;28;20050;-86
2023/05/21 06:58:00;;;;;;;7.43;6.65;;;16.40;99.90;;;;;;4969781;28;20446;-86
2023/05/21 07:00:26;;;;;;;11.57;6.05;;;16.40;99.90;;;;;;4970769;28;20391;-85
2023/05/21 07:02:51;;;;;;;6.80;6.20;;;16.50;99.90;;;;;;4970766;28;20019;-86
2023/05/21 07:05:17;;;;;;;7.28;6.57;;;16.50;99.90;;;;;;4970059;28;20037;-86
2023/05/21 07:07:42;;;;;;;8.85;6.47;;;16.50;99.90;;;;;;4971062;28;20027;-86
2023/05/21 07:10:09;;;;;;;9.13;6.57;;;16.40;99.90;;;;;;4971235;28;20023;-86
2023/05/21 07:12:34;;;;;;;8.50;6.93;;;16.40;99.90;;;;;;4968790;28;20039;-85
2023/05/21 07:15:00;;;;;;;7.30;6.70;;;16.40;99.90;;;;;;4970681;28;20077;-86
2023/05/21 07:17:25;;;;;;;7.07;6.47;;;16.30;99.90;;;;;;4971240;28;20031;-87
2023/05/21 07:19:51;;;;;;;7.60;6.82;;;16.40;99.90;;;;;;4969693;28;20034;-86
2023/05/21 07:22:16;;;;;;;7.63;7.00;;;16.30;99.90;;;;;;4970540;28;20015;-86
2023/05/21 07:24:42;;;;;;;8.13;6.47;;;16.40;99.90;;;;;;4970349;28;20023;-87
2023/05/21 07:27:07;;;;;;;7.03;6.15;;;16.30;99.90;;;;;;4969592;28;20073;-85
2023/05/21 07:29:33;;;;;;;7.15;6.45;;;16.30;99.90;;;;;;4970465;28;20019;-86
2023/05/21 07:31:59;;;;;;;9.32;6.88;;;16.30;99.90;;;;;;4970108;28;20066;-87
2023/05/21 07:34:25;;;;;;;7.32;6.60;;;16.70;99.90;;;;;;4970290;28;20034;-85
2023/05/21 07:36:50;;;;;;;8.40;7.35;;;16.30;99.90;;;;;;4969132;28;20023;-85
2023/05/21 07:39:16;;;;;;;9.05;7.13;;;16.30;99.90;;;;;;4969318;28;20079;-84
2023/05/21 07:41:42;;;;;;;8.95;7.28;;;16.30;99.90;;;;;;4969329;28;20104;-86
2023/05/21 07:44:07;;;;;;;9.48;6.72;;;16.30;99.90;;;;;;4970741;28;20066;-85
2023/05/21 07:46:33;;;;;;;10.77;7.38;;;16.30;99.90;;;;;;4969770;28;20485;-86
2023/05/21 07:48:59;;;;;;;10.60;7.55;;;16.40;99.90;;;;;;4970979;28;20497;-86
2023/05/21 07:51:25;;;;;;;8.43;7.72;;;16.40;99.90;;;;;;4970565;28;20084;-87
2023/05/21 07:53:51;;;;;;;8.88;7.63;;;16.40;99.90;;;;;;4969560;28;20071;-86
2023/05/21 07:56:16;;;;;;;8.30;7.50;;;16.40;99.90;;;;;;4968092;28;20050;-86
2023/05/21 07:58:44;;;;;;;16.83;6.85;;;16.40;99.90;;;;;;4982942;28;20072;-86
2023/05/21 08:01:10;;;;;;;8.95;7.25;;;16.40;99.90;;;;;;4987407;28;20099;-86
2023/05/21 08:03:36;;;;;;;9.90;7.95;;;16.30;99.90;;;;;;4987848;28;20034;-86
2023/05/21 08:06:02;;;;;;;8.57;6.90;;;16.70;99.90;;;;;;4987746;28;20492;-86
2023/05/21 08:08:28;;;;;;;7.90;7.20;;;16.50;99.90;;;;;;4987091;28;20030;-83
2023/05/21 08:10:54;;;;;;;10.93;7.40;;;16.60;99.90;;;;;;4989226;28;20033;-88
2023/05/21 08:13:19;;;;;;;9.15;8.25;;;16.60;99.90;;;;;;4989547;28;20050;-87
2023/05/21 08:15:45;;;;;;;9.60;7.85;;;16.60;99.90;;;;;;4989119;28;20022;-88
2023/05/21 08:18:11;;;;;;;8.20;7.40;;;16.60;99.90;;;;;;4979521;28;20063;-87
2023/05/21 08:20:37;;;;;;;12.48;8.07;;;16.70;99.90;;;;;;4970419;28;20027;-86
2023/05/21 08:23:02;;;;;;;10.57;8.25;;;16.70;99.90;;;;;;4969592;28;20023;-89
2023/05/21 08:25:28;;;;;;;9.95;7.53;;;16.70;99.90;;;;;;4970561;28;20114;-87
2023/05/21 08:27:54;;;;;;;8.20;7.60;;;17.40;99.90;;;;;;4970087;28;20047;-88
2023/05/21 08:30:20;;;;;;;9.68;7.80;;;16.80;99.90;;;;;;4967776;28;20495;-87
2023/05/21 08:32:46;;;;;;;8.43;7.70;;;16.80;99.90;;;;;;4971802;28;20043;-86
2023/05/21 08:35:12;;;;;;;11.70;8.30;;;16.80;99.90;;;;;;4973721;28;20062;-87
2023/05/21 08:37:38;;;;;;;10.85;8.57;;;16.90;99.90;;;;;;4972302;28;20051;-86
2023/05/21 08:40:05;;;;;;;9.68;8.55;;;16.90;99.90;;;;;;4973372;28;20471;-87
2023/05/21 08:42:41;;;;;;;8.77;7.97;;;17.00;99.90;;;;;;4972893;28;20031;-86
2023/05/21 08:45:07;;;;;;;8.68;7.72;;;16.40;99.90;;;;;;4988305;28;20030;-83
2023/05/21 08:47:35;;;;;;;10.57;8.25;;;17.00;99.90;;;;;;4991978;28;20030;-84
2023/05/21 08:50:03;;;;;;;7.70;6.97;;;17.10;99.90;;;;;;4991975;28;20030;-85
2023/05/21 08:52:30;;;;;;;14.20;7.72;;;17.10;99.90;;;;;;4992556;28;20101;-86
2023/05/21 08:54:56;;;;;;;9.00;8.18;;;17.20;99.90;;;;;;4992071;28;20027;-85
2023/05/21 08:57:24;;;;;;;8.23;7.40;;;17.10;99.90;;;;;;4992405;28;20033;-89
2023/05/21 08:59:49;;;;;;;8.60;7.75;;;17.30;99.90;;;;;;4992480;28;20033;-88
2023/05/21 09:02:17;;;;;;;10.15;7.20;;;17.30;99.90;;;;;;4991978;28;20023;-89
2023/05/21 09:04:48;;;;;;;8.40;6.82;;;17.30;99.90;;;;;;4992251;28;20057;-88
2023/05/21 09:07:14;;;;;;;8.77;8.02;;;17.40;99.90;;;;;;4993401;28;20034;-89
2023/05/21 09:10:06;;;;;;;8.85;7.32;;;17.40;99.90;;;;;;4992774;28;20022;-83
2023/05/21 09:12:33;;;;;;;8.32;7.53;;;17.40;99.90;;;;;;4991084;28;20466;-84
2023/05/21 09:15:00;;;;;;;8.65;7.85;;;17.40;99.90;;;;;;4992291;28;20053;-85
2023/05/21 09:17:25;;;;;;;9.23;8.10;;;17.40;99.90;;;;;;4991625;28;20484;-85
2023/05/21 09:20:14;;;;;;;8.65;7.88;;;17.90;99.90;;;;;;4991130;28;20022;-83
2023/05/21 09:22:41;;;;;;;14.02;7.85;;;17.40;99.90;;;;;;4991775;28;20473;-86
2023/05/21 09:25:09;;;;;;;8.32;7.53;;;17.40;99.90;;;;;;4988910;28;20034;-84
2023/05/21 09:27:35;;;;;;;8.57;7.50;;;17.40;99.90;;;;;;4972028;28;20018;-85
2023/05/21 09:30:03;;;;;;;9.90;8.23;;;17.90;99.90;;;;;;4972425;28;20114;-88
2023/05/21 09:32:28;;;;;;;9.40;8.40;;;17.40;99.90;;;;;;4972801;28;20053;-90
2023/05/21 09:34:55;;;;;;;8.98;7.97;;;17.60;99.90;;;;;;4972754;28;20624;-88
2023/05/21 09:37:21;;;;;;;11.38;8.43;;;17.40;99.90;;;;;;4972885;28;20018;-90
2023/05/21 09:39:47;;;;;;;9.50;8.52;;;17.40;99.90;;;;;;4972335;28;20060;-87
2023/05/21 09:42:16;;;;;;;10.52;8.75;;;17.40;99.90;;;;;;4971702;28;20027;-88
2023/05/21 09:44:44;;;;;;;10.18;8.70;;;17.50;99.90;;;;;;4971592;28;20113;-89
2023/05/21 09:47:10;;;;;;;11.43;8.40;;;17.60;99.90;;;;;;4971331;28;20041;-89
2023/05/21 09:49:36;;;;;;;8.63;7.88;;;17.40;99.90;;;;;;4972025;28;20031;-88
2023/05/21 09:52:02;;;;;;;11.85;8.32;;;17.60;99.90;;;;;;4972604;28;20023;-88
2023/05/21 09:54:32;;;;;;;9.25;8.10;;;17.60;99.90;;;;;;4971518;28;20073;-90
2023/05/21 09:57:03;;;;;;;10.00;9.05;;;17.60;99.90;;;;;;4972680;28;20371;-89
2023/05/21 09:59:36;;;;;;;12.50;8.18;;;17.70;99.90;;;;;;4972515;28;20035;-88
2023/05/21 10:02:02;;;;;;;10.27;8.80;;;17.70;99.90;;;;;;4971824;28;20102;-87
2023/05/21 10:04:29;;;;;;;11.32;8.05;;;17.70;99.90;;;;;;4972182;28;20055;-88
2023/05/21 10:06:57;;;;;;;11.48;7.95;;;17.80;99.90;;;;;;4971365;28;20026;-87
2023/05/21 10:09:23;;;;;;;12.00;8.15;;;17.80;99.90;;;;;;4971872;28;20041;-88
2023/05/21 10:11:51;;;;;;;10.55;9.10;;;17.80;99.90;;;;;;4971790;28;20042;-87
2023/05/21 10:14:24;;;;;;;11.60;8.73;;;18.30;99.90;;;;;;4971029;28;20083;-88
2023/05/21 10:16:53;;;;;;;13.68;8.75;;;17.80;99.90;;;;;;4972065;28;20063;-89
2023/05/21 10:19:19;;;;;;;9.05;8.10;;;17.90;99.90;;;;;;4978795;28;20035;-88
2023/05/21 10:21:45;;;;;;;9.40;7.88;;;17.90;99.90;;;;;;4971193;28;20383;-87
2023/05/21 10:24:12;;;;;;;13.45;8.02;;;18.00;99.90;;;;;;4971512;28;20031;-88
2023/05/21 10:26:40;;;;;;;9.32;7.65;;;18.00;99.90;;;;;;4971360;28;20033;-89
2023/05/21 10:29:07;;;;;;;9.82;7.70;;;18.00;99.90;;;;;;4971267;28;20031;-86
2023/05/21 10:31:33;;;;;;;8.90;7.70;;;18.10;99.90;;;;;;4971399;28;20019;-86
2023/05/21 10:34:00;;;;;;;10.43;8.60;;;18.60;99.90;;;;;;4971497;28;20115;-86
2023/05/21 10:36:30;;;;;;;11.65;8.88;;;18.20;99.90;;;;;;4971272;28;20027;-88
2023/05/21 10:38:57;;;;;;;11.13;8.48;;;18.20;99.90;;;;;;4971299;28;20063;-86
2023/05/21 10:41:24;;;;;;;14.55;7.93;;;18.30;99.90;;;;;;4971998;28;20030;-89
2023/05/21 10:44:17;;;;;;;12.23;7.30;;;18.30;99.90;;;;;;4981154;28;20038;-89
2023/05/21 10:47:15;;;;;;;12.45;8.18;;;18.30;99.90;;;;;;4974721;28;20026;-88
2023/05/21 10:49:49;;;;;;;9.60;8.73;;;18.40;99.90;;;;;;4972125;28;20051;-87
2023/05/21 10:52:43;;;;;;;9.63;8.15;;;19.00;99.90;;;;;;4984232;28;20019;-90
2023/05/21 10:55:31;;;;;;;9.70;8.23;;;18.40;99.90;;;;;;4976903;28;20039;-91
2023/05/21 10:58:34;;;;;;;9.32;8.00;;;18.40;99.90;;;;;;4971214;28;20065;-89
2023/05/21 11:01:01;;;;;;;20.42;8.23;;;18.40;99.90;;;;;;4971309;28;20030;-88
2023/05/21 11:03:28;;;;;;;12.00;8.20;;;18.40;99.90;;;;;;4971409;28;20030;-89
2023/05/21 11:05:55;;;;;;;8.82;7.90;;;18.90;99.90;;;;;;4971313;28;20105;-89
2023/05/21 11:08:22;;;;;;;8.68;7.88;;;18.70;99.90;;;;;;4971445;28;20019;-90
2023/05/21 11:10:56;;;;;;;16.52;7.57;;;18.40;99.90;;;;;;4973813;28;20041;-89
2023/05/21 11:13:23;;;;;;;11.25;7.47;;;18.40;99.90;;;;;;4979257;28;20450;-89
2023/05/21 11:15:58;;;;;;;8.77;7.97;;;18.50;99.90;;;;;;4971373;28;20055;-89
2023/05/21 11:18:38;;;;;;;10.45;7.90;;;18.50;99.90;;;;;;4970994;28;20497;-89
2023/05/21 11:21:09;;;;;;;10.02;7.93;;;18.60;99.90;;;;;;4971594;28;20033;-88
2023/05/21 11:23:49;;;;;;;10.40;7.50;;;18.50;99.90;;;;;;4971801;28;20102;-89
2023/05/21 11:26:26;;;;;;;13.07;8.52;;;18.50;99.90;;;;;;4970407;28;20030;-90
2023/05/21 11:29:07;;;;;;;9.32;8.13;;;18.50;99.90;;;;;;4970732;28;20023;-90
2023/05/21 11:31:37;;;;;;;8.68;7.88;;;18.50;99.90;;;;;;4967892;28;20042;-90
2023/05/21 11:34:27;;;;;;;10.57;8.57;;;18.60;99.90;;;;;;4971160;28;20030;-90
2023/05/21 11:37:31;;;;;;;10.48;8.10;;;18.60;99.90;;;;;;4970102;28;20042;-90
2023/05/21 11:40:17;;;;;;;9.30;8.50;;;18.60;99.90;;;;;;4964969;28;20027;-90
2023/05/21 11:42:47;;;;;;;14.02;8.23;;;18.70;99.90;;;;;;4968246;28;20031;-89
2023/05/21 11:45:17;;;;;;;9.52;8.52;;;18.80;99.90;;;;;;4969258;28;20058;-88
2023/05/21 11:47:43;;;;;;;13.77;9.30;;;18.80;99.90;;;;;;4958428;28;20035;-87
2023/05/21 11:50:12;;;;;;;16.27;9.20;;;18.80;99.90;;;;;;4970112;28;20027;-88
2023/05/21 11:52:39;;;;;;;11.02;9.20;;;19.30;99.90;;;;;;4969826;28;20039;-89
2023/05/21 11:55:06;;;;;;;13.35;9.55;;;18.70;99.90;;;;;;4971351;28;20035;-92
2023/05/21 11:57:31;;;;;;;12.68;8.40;;;18.60;99.90;;;;;;4971584;28;20027;-90
2023/05/21 12:00:00;;;;;;;10.02;9.05;;;18.60;99.90;;;;;;4970832;28;20023;-90
2023/05/21 12:02:30;;;;;;;9.68;8.45;;;19.10;99.90;;;;;;5038376;28;20073;-91
2023/05/21 12:04:59;;;;;;;13.05;9.05;;;18.70;99.90;;;;;;4984048;28;20030;-90
2023/05/21 12:07:30;;;;;;;10.10;9.07;;;18.70;99.90;;;;;;4973250;28;20031;-90
2023/05/21 12:09:56;;;;;;;9.43;7.97;;;18.70;99.90;;;;;;4974423;28;20027;-90
2023/05/21 12:12:25;;;;;;;18.85;9.77;;;18.60;99.90;;;;;;4976941;28;20051;-90
2023/05/21 12:14:53;;;;;;;12.45;8.45;;;18.70;99.90;;;;;;4962289;28;20038;-90
2023/05/21 12:17:20;;;;;;;10.45;8.43;;;18.70;99.90;;;;;;4982173;28;20044;-89
2023/05/21 12:19:47;;;;;;;16.52;8.80;;;18.60;99.90;;;;;;4971895;28;20031;-89
2023/05/21 12:22:16;;;;;;;10.38;8.38;;;19.40;99.90;;;;;;4975135;28;20023;-86
2023/05/21 12:24:42;;;;;;;9.63;8.63;;;18.70;99.90;;;;;;4973329;28;20058;-90
2023/05/21 12:27:11;;;;;;;14.27;8.90;;;19.60;99.90;;;;;;4973792;28;20544;-90
2023/05/21 12:29:39;;;;;;;13.98;9.52;;;18.70;99.90;;;;;;4972799;28;20031;-90
2023/05/21 12:32:08;;;;;;;15.98;9.20;;;19.20;99.90;;;;;;4974989;28;20047;-89
2023/05/21 12:34:49;;;;;;;10.55;9.48;;;18.70;99.90;;;;;;4973660;28;20035;-90
2023/05/21 12:37:20;;;;;;;10.98;8.63;;;18.80;99.90;;;;;;4974344;28;20053;-90
2023/05/21 12:39:48;;;;;;;10.60;9.50;;;18.80;99.90;;;;;;4972277;28;20027;-91
2023/05/21 12:42:14;;;;;;;9.82;8.30;;;18.90;99.90;;;;;;4972458;28;20043;-90
2023/05/21 12:44:43;;;;;;;16.88;9.82;;;19.00;99.90;;;;;;4970592;28;20062;-90
2023/05/21 12:47:09;;;;;;;10.77;9.10;;;19.30;99.90;;;;;;4969956;28;20027;-90